Time;durP1;ratioP1;P1;durP2;ratioP2;P2;SDS_P1;SDS_P2;PMS_P1;PMS_P2;Temp;Humidity;BMP_temperature;BMP_pressure;BME280_temperature;BME280_humidity;BME280_pressure;Samples;Min_cycle;Max_cycle;Signal;HPM_P1;HPM_P2
2021/12/19 00:01:31;;;;;;;58.60;27.85;;;;;;;;;;4900505;29;20064;-70
2021/12/19 00:04:19;;;;;;;57.10;29.30;;;;;;;;;;4901771;29;20115;-69
2021/12/19 00:09:29;;;;;;;56.95;27.42;;;;;;;;;;4902503;29;20475;-69
2021/12/19 00:11:57;;;;;;;55.00;27.90;;;;;;;;;;4891197;29;20043;-69
2021/12/19 00:14:23;;;;;;;64.88;29.45;;;;;;;;;;4894576;29;20323;-69
2021/12/19 00:16:53;;;;;;;61.75;29.67;;;;;;;;;;4897347;29;20040;-69
2021/12/19 00:19:19;;;;;;;61.65;29.45;;;;;;;;;;4918855;29;20066;-69
2021/12/19 00:21:46;;;;;;;54.92;28.23;;;;;;;;;;4896020;29;20468;-69
2021/12/19 00:24:12;;;;;;;59.45;27.20;;;;;;;;;;4897680;29;20040;-70
2021/12/19 00:26:38;;;;;;;53.53;26.88;;;;;;;;;;4899003;29;20048;-69
2021/12/19 00:29:04;;;;;;;60.40;28.33;;;;;;;;;;4916311;29;20086;-69
2021/12/19 00:31:31;;;;;;;57.17;26.98;;;;;;;;;;4895803;29;20032;-69
2021/12/19 00:33:58;;;;;;;70.20;31.10;;;;;;;;;;4915214;29;20552;-69
2021/12/19 00:36:24;;;;;;;65.38;30.25;;;;;;;;;;4902415;29;20059;-69
2021/12/19 00:38:50;;;;;;;62.22;30.05;;;;;;;;;;4897242;29;20071;-69
2021/12/19 00:41:16;;;;;;;58.13;30.10;;;;;;;;;;4914538;29;20480;-69
2021/12/19 00:46:08;;;;;;;67.45;29.67;;;;;;;;;;4898746;29;20180;-69
2021/12/19 00:48:37;;;;;;;75.35;29.48;;;;;;;;;;4901017;29;20484;-69
2021/12/19 00:51:04;;;;;;;54.75;27.83;;;;;;;;;;4901521;29;20512;-69
2021/12/19 00:53:30;;;;;;;60.85;30.10;;;;;;;;;;4897723;29;20040;-69
2021/12/19 00:55:55;;;;;;;62.60;30.45;;;;;;;;;;4893599;29;20044;-69
2021/12/19 00:58:21;;;;;;;69.22;32.83;;;;;;;;;;4885070;29;20343;-69
2021/12/19 01:00:47;;;;;;;75.70;33.67;;;;;;;;;;4892455;29;20127;-70
2021/12/19 01:03:13;;;;;;;69.50;30.20;;;;;;;;;;4892803;29;20389;-69
2021/12/19 01:05:41;;;;;;;64.32;30.90;;;;;;;;;;4886609;29;20115;-69
2021/12/19 01:08:07;;;;;;;65.82;31.75;;;;;;;;;;4890090;29;20043;-69
2021/12/19 01:10:35;;;;;;;70.65;31.67;;;;;;;;;;4891931;29;20049;-69
2021/12/19 01:13:02;;;;;;;67.93;30.10;;;;;;;;;;4890855;29;20071;-70
2021/12/19 01:15:28;;;;;;;66.38;30.35;;;;;;;;;;4893480;29;20048;-69
2021/12/19 01:17:54;;;;;;;75.47;33.05;;;;;;;;;;4893418;29;20481;-69
2021/12/19 01:20:23;;;;;;;75.22;35.70;;;;;;;;;;4893313;29;20051;-69
2021/12/19 01:22:49;;;;;;;76.07;31.15;;;;;;;;;;4890516;29;20039;-70
2021/12/19 01:25:16;;;;;;;54.85;26.77;;;;;;;;;;4906128;29;20044;-69
2021/12/19 01:27:42;;;;;;;76.18;33.08;;;;;;;;;;4892826;29;20060;-69
2021/12/19 01:30:10;;;;;;;74.15;30.60;;;;;;;;;;4893372;29;20068;-69
2021/12/19 01:32:37;;;;;;;63.45;28.95;;;;;;;;;;4889736;29;20043;-69
2021/12/19 01:35:04;;;;;;;69.07;28.60;;;;;;;;;;4887492;29;20036;-69
2021/12/19 01:37:30;;;;;;;75.55;33.03;;;;;;;;;;4892881;29;20477;-69
2021/12/19 01:39:55;;;;;;;67.47;29.83;;;;;;;;;;4892727;29;20096;-70
2021/12/19 01:42:28;;;;;;;66.60;30.98;;;;;;;;;;4889735;29;20485;-69
2021/12/19 01:44:54;;;;;;;66.20;29.83;;;;;;;;;;4892739;29;20033;-69
2021/12/19 01:47:21;;;;;;;68.90;29.65;;;;;;;;;;4893040;29;20084;-69
2021/12/19 01:49:46;;;;;;;62.08;30.30;;;;;;;;;;4900536;29;20155;-69
2021/12/19 01:52:12;;;;;;;76.20;31.45;;;;;;;;;;4890371;29;20079;-69
2021/12/19 01:54:38;;;;;;;73.65;31.88;;;;;;;;;;4887806;29;20048;-69
2021/12/19 01:57:03;;;;;;;76.00;32.55;;;;;;;;;;4900437;29;20120;-69
2021/12/19 01:59:29;;;;;;;84.43;34.33;;;;;;;;;;4899454;29;20040;-69
2021/12/19 02:01:56;;;;;;;103.55;37.60;;;;;;;;;;4891858;29;20072;-69
2021/12/19 02:04:23;;;;;;;91.82;36.42;;;;;;;;;;4888746;29;20049;-69
2021/12/19 02:06:49;;;;;;;96.03;35.72;;;;;;;;;;4894466;29;20032;-69
2021/12/19 02:09:17;;;;;;;95.28;36.42;;;;;;;;;;4891347;29;20071;-69
2021/12/19 02:11:43;;;;;;;90.72;36.78;;;;;;;;;;4904033;29;20397;-69
2021/12/19 02:14:10;;;;;;;82.88;33.97;;;;;;;;;;4893259;29;20062;-69
2021/12/19 02:16:38;;;;;;;100.65;37.80;;;;;;;;;;4896808;29;20044;-70
2021/12/19 02:19:04;;;;;;;95.72;37.65;;;;;;;;;;4889086;29;20410;-69
2021/12/19 02:21:31;;;;;;;107.85;38.13;;;;;;;;;;4888021;29;20037;-69
2021/12/19 02:23:58;;;;;;;120.68;40.72;;;;;;;;;;4892961;29;20062;-69
2021/12/19 02:26:25;;;;;;;102.90;38.67;;;;;;;;;;4905534;29;20068;-69
2021/12/19 02:28:50;;;;;;;112.50;41.10;;;;;;;;;;4891855;29;20123;-70
2021/12/19 02:31:16;;;;;;;104.15;36.97;;;;;;;;;;4892409;29;20116;-69
2021/12/19 02:33:53;;;;;;;114.93;39.72;;;;;;;;;;4892120;29;20036;-69
2021/12/19 02:36:27;;;;;;;124.72;43.10;;;;;;;;;;4889135;29;20050;-69
2021/12/19 02:50:10;;;;;;;98.03;34.42;;;;;;;;;;4890093;29;20393;-69
2021/12/19 02:52:35;;;;;;;99.63;31.75;;;;;;;;;;4893462;29;20043;-69
2021/12/19 02:55:03;;;;;;;136.70;40.13;;;;;;;;;;4893556;29;20048;-68
2021/12/19 02:57:28;;;;;;;119.45;35.45;;;;;;;;;;4894461;29;20055;-68
2021/12/19 02:59:54;;;;;;;117.22;34.53;;;;;;;;;;4895481;29;20032;-69
2021/12/19 03:02:20;;;;;;;110.55;32.47;;;;;;;;;;4901805;29;20036;-69
2021/12/19 03:04:58;;;;;;;103.15;32.97;;;;;;;;;;4919306;23;20055;-68
2021/12/19 03:07:25;;;;;;;108.50;33.77;;;;;;;;;;4947907;28;20448;-70
2021/12/19 03:10:16;;;;;;;92.07;29.20;;;;;;;;;;4944916;29;20423;-70
2021/12/19 03:18:10;;;;;;;84.22;29.40;;;;;;;;;;4924448;29;20097;-70
2021/12/19 03:20:38;;;;;;;80.53;28.75;;;;;;;;;;4943225;23;20046;-70
2021/12/19 03:23:06;;;;;;;72.05;28.23;;;;;;;;;;4924415;29;20063;-70
2021/12/19 03:25:33;;;;;;;65.43;26.42;;;;;;;;;;4928765;29;20043;-70
2021/12/19 03:28:01;;;;;;;89.13;31.40;;;;;;;;;;4916998;29;20143;-70
2021/12/19 03:30:27;;;;;;;95.80;33.15;;;;;;;;;;4919539;29;20395;-70
2021/12/19 03:32:53;;;;;;;100.30;31.40;;;;;;;;;;4924193;29;20039;-69
2021/12/19 03:35:19;;;;;;;94.10;30.40;;;;;;;;;;4919114;29;20032;-69
2021/12/19 03:37:47;;;;;;;111.82;33.75;;;;;;;;;;4920943;29;20051;-70
2021/12/19 03:40:21;;;;;;;108.32;29.83;;;;;;;;;;4907812;29;20507;-70
2021/12/19 03:42:49;;;;;;;102.75;29.30;;;;;;;;;;4925386;29;20356;-70
2021/12/19 03:45:18;;;;;;;91.28;29.00;;;;;;;;;;4924415;29;20072;-70
2021/12/19 03:47:45;;;;;;;114.72;32.00;;;;;;;;;;4929780;29;20070;-70
2021/12/19 03:50:16;;;;;;;97.10;29.35;;;;;;;;;;4920628;29;20095;-70
2021/12/19 03:52:41;;;;;;;98.85;28.35;;;;;;;;;;4930887;29;20044;-70
2021/12/19 03:55:07;;;;;;;84.03;26.52;;;;;;;;;;4911497;29;20059;-70
2021/12/19 03:57:33;;;;;;;88.55;28.65;;;;;;;;;;4912534;29;20047;-70
2021/12/19 03:59:59;;;;;;;81.55;26.23;;;;;;;;;;4916672;29;20229;-70
2021/12/19 04:02:26;;;;;;;79.10;28.42;;;;;;;;;;4920591;29;20040;-70
2021/12/19 04:04:55;;;;;;;106.78;31.48;;;;;;;;;;4924544;29;20842;-70
2021/12/19 04:07:21;;;;;;;109.07;30.48;;;;;;;;;;4915907;29;20048;-70
2021/12/19 04:09:47;;;;;;;115.15;30.17;;;;;;;;;;4920858;29;20055;-69
2021/12/19 04:12:13;;;;;;;93.82;28.30;;;;;;;;;;4921014;29;20043;-70
2021/12/19 04:14:39;;;;;;;104.10;28.55;;;;;;;;;;4918259;29;20039;-70
2021/12/19 04:17:05;;;;;;;94.90;28.60;;;;;;;;;;4925154;29;20476;-70
2021/12/19 04:19:32;;;;;;;106.90;29.23;;;;;;;;;;4899322;29;20392;-69
2021/12/19 04:21:59;;;;;;;110.88;30.35;;;;;;;;;;4922298;29;20122;-70
2021/12/19 04:24:28;;;;;;;110.50;31.33;;;;;;;;;;4922414;29;20044;-70
2021/12/19 04:26:57;;;;;;;110.72;29.67;;;;;;;;;;4922315;29;20054;-70
2021/12/19 04:29:24;;;;;;;106.20;28.80;;;;;;;;;;4923685;29;20479;-70
2021/12/19 04:31:54;;;;;;;87.40;27.73;;;;;;;;;;4925332;29;20269;-69
2021/12/19 04:34:22;;;;;;;93.25;28.30;;;;;;;;;;4927507;29;20052;-69
2021/12/19 04:36:53;;;;;;;115.95;31.83;;;;;;;;;;4925930;29;20484;-69
2021/12/19 04:57:39;;;;;;;107.90;28.55;;;;;;;;;;4911386;29;20323;-70
2021/12/19 05:00:16;;;;;;;98.25;26.90;;;;;;;;;;4906301;29;20195;-70
2021/12/19 05:02:50;;;;;;;103.53;28.92;;;;;;;;;;4915132;29;20365;-70
2021/12/19 05:15:59;;;;;;;119.25;32.88;;;;;;;;;;4908730;29;20084;-69
2021/12/19 05:18:28;;;;;;;128.57;33.05;;;;;;;;;;4914441;29;20036;-69
2021/12/19 05:20:58;;;;;;;91.35;24.60;;;;;;;;;;4919220;29;20213;-69
2021/12/19 05:23:35;;;;;;;127.70;30.05;;;;;;;;;;4923886;29;20036;-69
2021/12/19 05:26:02;;;;;;;91.55;26.40;;;;;;;;;;4916603;29;20071;-70
2021/12/19 05:28:28;;;;;;;120.20;31.38;;;;;;;;;;4919530;29;20143;-70
2021/12/19 05:30:53;;;;;;;115.03;32.97;;;;;;;;;;4925886;29;20147;-70
2021/12/19 05:33:19;;;;;;;119.90;30.73;;;;;;;;;;4919071;29;20040;-69
2021/12/19 05:46:23;;;;;;;97.88;25.08;;;;;;;;;;4917462;29;20513;-69
2021/12/19 05:48:49;;;;;;;111.22;32.13;;;;;;;;;;4926342;29;20240;-70
2021/12/19 05:51:14;;;;;;;104.40;29.33;;;;;;;;;;4917273;29;20040;-70
2021/12/19 05:53:40;;;;;;;107.07;29.08;;;;;;;;;;4926732;29;20040;-69
2021/12/19 05:56:06;;;;;;;108.05;29.30;;;;;;;;;;4924508;29;20050;-70
2021/12/19 05:58:31;;;;;;;129.13;32.30;;;;;;;;;;4924432;29;20051;-70
2021/12/19 06:00:57;;;;;;;118.45;30.02;;;;;;;;;;4920208;29;20110;-70
2021/12/19 06:03:23;;;;;;;114.82;28.58;;;;;;;;;;4921241;29;20062;-70
2021/12/19 06:05:48;;;;;;;128.65;31.13;;;;;;;;;;4923503;29;20046;-70
2021/12/19 06:08:14;;;;;;;134.48;32.30;;;;;;;;;;4921558;29;20060;-69
2021/12/19 06:10:40;;;;;;;137.45;31.52;;;;;;;;;;4916160;29;20091;-70
2021/12/19 06:13:05;;;;;;;134.57;31.63;;;;;;;;;;4920924;29;20195;-69
2021/12/19 06:15:31;;;;;;;113.03;30.70;;;;;;;;;;4922400;29;20485;-70
2021/12/19 06:17:57;;;;;;;138.15;30.23;;;;;;;;;;4907479;29;20142;-69
2021/12/19 06:20:25;;;;;;;150.93;34.13;;;;;;;;;;4918481;29;20407;-69
2021/12/19 06:22:52;;;;;;;109.07;29.13;;;;;;;;;;4926645;29;20037;-70
2021/12/19 06:25:17;;;;;;;116.97;26.95;;;;;;;;;;4926678;29;20087;-70
2021/12/19 06:27:43;;;;;;;136.05;31.55;;;;;;;;;;4923176;29;20496;-69
2021/12/19 06:30:10;;;;;;;103.63;28.85;;;;;;;;;;4926299;29;20035;-69
2021/12/19 06:32:36;;;;;;;103.90;27.27;;;;;;;;;;4923647;29;20095;-69
2021/12/19 06:35:07;;;;;;;100.93;26.90;;;;;;;;;;4919452;29;20028;-69
2021/12/19 06:37:37;;;;;;;105.10;28.15;;;;;;;;;;4912904;29;20047;-69
2021/12/19 06:40:06;;;;;;;101.53;29.23;;;;;;;;;;4928979;29;20087;-69
2021/12/19 06:42:32;;;;;;;133.93;31.80;;;;;;;;;;4903682;29;20122;-69
2021/12/19 06:44:58;;;;;;;136.43;32.30;;;;;;;;;;4923393;29;20119;-70
2021/12/19 06:47:24;;;;;;;105.30;29.70;;;;;;;;;;4898016;29;20398;-70
2021/12/19 06:49:50;;;;;;;88.93;26.25;;;;;;;;;;4912095;29;20577;-69
2021/12/19 06:52:15;;;;;;;110.60;29.35;;;;;;;;;;4932629;29;20063;-69
2021/12/19 06:54:41;;;;;;;119.10;29.83;;;;;;;;;;4926960;29;20038;-69
2021/12/19 06:57:06;;;;;;;91.07;28.23;;;;;;;;;;4927886;29;20517;-69
2021/12/19 06:59:32;;;;;;;105.75;29.45;;;;;;;;;;4931717;29;20032;-70
2021/12/19 07:01:57;;;;;;;101.00;29.35;;;;;;;;;;4917820;29;20039;-70
2021/12/19 07:04:23;;;;;;;104.30;26.88;;;;;;;;;;4927265;29;20046;-69
2021/12/19 07:06:49;;;;;;;126.07;30.33;;;;;;;;;;4922474;29;20051;-69
2021/12/19 07:09:15;;;;;;;112.32;29.23;;;;;;;;;;4915057;29;20465;-70
2021/12/19 07:11:42;;;;;;;62.20;21.63;;;;;;;;;;4926106;29;20119;-69
2021/12/19 07:14:08;;;;;;;117.00;31.98;;;;;;;;;;4915137;29;20042;-69
2021/12/19 07:16:34;;;;;;;109.68;28.20;;;;;;;;;;4921444;29;20035;-69
2021/12/19 07:18:59;;;;;;;108.53;29.60;;;;;;;;;;4922165;29;20044;-69
2021/12/19 07:21:25;;;;;;;80.63;26.15;;;;;;;;;;4924518;29;20036;-69
2021/12/19 07:23:51;;;;;;;112.07;30.63;;;;;;;;;;4910914;29;20032;-69
2021/12/19 07:26:17;;;;;;;90.95;27.40;;;;;;;;;;4924387;29;20088;-69
2021/12/19 07:28:46;;;;;;;96.43;27.58;;;;;;;;;;4928648;29;20040;-69
2021/12/19 07:31:11;;;;;;;81.70;24.85;;;;;;;;;;4924878;29;20491;-69
2021/12/19 07:33:37;;;;;;;81.82;24.92;;;;;;;;;;4908468;29;20043;-70
2021/12/19 07:36:03;;;;;;;95.07;26.23;;;;;;;;;;4913094;29;20055;-69
2021/12/19 07:38:37;;;;;;;88.85;24.65;;;;;;;;;;4928266;29;20537;-69
2021/12/19 07:41:04;;;;;;;76.07;24.23;;;;;;;;;;4927269;29;20098;-70
2021/12/19 07:43:30;;;;;;;78.60;24.40;;;;;;;;;;4928198;29;20047;-69
2021/12/19 07:45:56;;;;;;;82.13;26.38;;;;;;;;;;4912371;29;20593;-69
2021/12/19 07:48:22;;;;;;;74.35;22.55;;;;;;;;;;4935600;29;20111;-69
2021/12/19 07:50:48;;;;;;;69.72;23.85;;;;;;;;;;4932701;29;20047;-69
2021/12/19 07:53:14;;;;;;;88.63;27.88;;;;;;;;;;4938131;29;20038;-69
2021/12/19 07:55:39;;;;;;;90.05;26.65;;;;;;;;;;4938268;29;20059;-69
2021/12/19 07:58:05;;;;;;;68.70;24.73;;;;;;;;;;4935978;29;20035;-69
2021/12/19 08:00:31;;;;;;;64.25;23.85;;;;;;;;;;4933043;29;20047;-68
2021/12/19 08:02:56;;;;;;;65.45;24.90;;;;;;;;;;4939078;29;20352;-69
2021/12/19 08:05:22;;;;;;;70.43;24.70;;;;;;;;;;4935178;29;20551;-69
2021/12/19 08:07:54;;;;;;;47.78;20.63;;;;;;;;;;4925498;29;20066;-68
2021/12/19 08:12:45;;;;;;;56.00;21.17;;;;;;;;;;4889680;29;20214;-68
2021/12/19 08:15:12;;;;;;;59.53;21.95;;;;;;;;;;4922083;29;20050;-68
2021/12/19 08:17:38;;;;;;;49.30;21.73;;;;;;;;;;4924501;29;20147;-69
2021/12/19 08:20:06;;;;;;;51.85;20.77;;;;;;;;;;4915904;29;20044;-69
2021/12/19 08:22:33;;;;;;;52.67;21.58;;;;;;;;;;4927124;29;20047;-69
2021/12/19 08:24:59;;;;;;;36.22;19.30;;;;;;;;;;4909158;29;20134;-69
2021/12/19 08:27:26;;;;;;;49.40;19.38;;;;;;;;;;4926224;29;20432;-69
2021/12/19 08:29:54;;;;;;;51.83;21.88;;;;;;;;;;4921152;29;20040;-69
2021/12/19 08:32:21;;;;;;;51.53;21.15;;;;;;;;;;4929588;29;20106;-70
2021/12/19 08:34:47;;;;;;;47.47;22.55;;;;;;;;;;4934251;29;20031;-70
2021/12/19 08:37:15;;;;;;;36.45;18.75;;;;;;;;;;4906991;29;20032;-70
2021/12/19 08:39:42;;;;;;;30.90;17.90;;;;;;;;;;4918126;29;20599;-70
2021/12/19 08:42:09;;;;;;;32.80;17.15;;;;;;;;;;4921169;29;20051;-69
2021/12/19 08:44:36;;;;;;;37.72;20.25;;;;;;;;;;4913083;29;20043;-70
2021/12/19 08:47:02;;;;;;;41.95;21.02;;;;;;;;;;4920840;29;20043;-70
2021/12/19 08:49:28;;;;;;;32.90;18.13;;;;;;;;;;4911744;29;20138;-69
2021/12/19 08:51:54;;;;;;;40.65;19.35;;;;;;;;;;4920361;29;20126;-70
2021/12/19 08:54:21;;;;;;;27.98;17.80;;;;;;;;;;4922557;29;20048;-70
2021/12/19 08:56:46;;;;;;;30.60;17.38;;;;;;;;;;4917563;29;20036;-69
2021/12/19 08:59:12;;;;;;;35.35;18.83;;;;;;;;;;4925646;29;20047;-69
2021/12/19 09:01:38;;;;;;;44.35;20.58;;;;;;;;;;4916001;29;20411;-69
2021/12/19 09:04:04;;;;;;;40.75;19.13;;;;;;;;;;4919186;29;20598;-69
2021/12/19 09:06:29;;;;;;;31.50;17.83;;;;;;;;;;4920721;29;20047;-70
2021/12/19 09:08:55;;;;;;;38.92;20.00;;;;;;;;;;4925269;29;20038;-70
2021/12/19 09:11:22;;;;;;;24.95;16.70;;;;;;;;;;4915484;29;20471;-69
2021/12/19 09:13:47;;;;;;;27.13;16.35;;;;;;;;;;4915733;29;20316;-70
2021/12/19 09:16:13;;;;;;;29.88;16.88;;;;;;;;;;4923351;29;20123;-70
2021/12/19 09:18:39;;;;;;;27.63;16.15;;;;;;;;;;4922111;29;20091;-71
2021/12/19 09:21:05;;;;;;;37.03;19.27;;;;;;;;;;4950475;23;20160;-72
2021/12/19 09:23:32;;;;;;;34.15;18.13;;;;;;;;;;4939863;28;20050;-71
2021/12/19 09:25:58;;;;;;;31.38;17.45;;;;;;;;;;4944556;28;20483;-74
2021/12/19 09:28:24;;;;;;;32.65;17.75;;;;;;;;;;4937049;29;20074;-72
2021/12/19 09:30:50;;;;;;;26.15;16.95;;;;;;;;;;4931401;29;20475;-72
2021/12/19 09:33:15;;;;;;;28.80;17.88;;;;;;;;;;4939316;28;20035;-71
2021/12/19 09:35:41;;;;;;;23.00;15.82;;;;;;;;;;4941536;28;20070;-74
2021/12/19 09:38:07;;;;;;;26.00;16.50;;;;;;;;;;4942135;29;20097;-74
2021/12/19 09:40:36;;;;;;;20.67;14.82;;;;;;;;;;4942756;29;20035;-72
2021/12/19 09:43:08;;;;;;;22.10;15.90;;;;;;;;;;4938193;28;20073;-71
2021/12/19 09:45:34;;;;;;;27.85;16.30;;;;;;;;;;4943931;29;20035;-74
2021/12/19 09:48:00;;;;;;;29.95;18.17;;;;;;;;;;4940890;29;20074;-73
2021/12/19 09:50:28;;;;;;;24.20;16.27;;;;;;;;;;4943008;28;20079;-74
2021/12/19 09:52:53;;;;;;;25.02;16.38;;;;;;;;;;4942249;29;20519;-74
2021/12/19 09:55:21;;;;;;;26.92;16.63;;;;;;;;;;4942080;28;20074;-73
2021/12/19 09:57:49;;;;;;;22.95;14.40;;;;;;;;;;4936482;29;20093;-73
2021/12/19 10:00:16;;;;;;;26.35;16.38;;;;;;;;;;4938924;28;20051;-73
2021/12/19 10:02:43;;;;;;;19.65;15.43;;;;;;;;;;4942382;28;20535;-72
2021/12/19 10:05:16;;;;;;;17.63;14.30;;;;;;;;;;4933448;29;20067;-73
2021/12/19 10:07:53;;;;;;;20.80;15.18;;;;;;;;;;4935797;29;20909;-74
2021/12/19 10:10:25;;;;;;;18.23;14.50;;;;;;;;;;4940340;28;20134;-74
2021/12/19 10:12:53;;;;;;;20.38;14.43;;;;;;;;;;4940818;29;20036;-73
2021/12/19 10:15:27;;;;;;;22.38;16.27;;;;;;;;;;4935612;29;20403;-74
2021/12/19 10:18:19;;;;;;;23.85;15.55;;;;;;;;;;4934888;28;20130;-73
2021/12/19 10:20:53;;;;;;;22.02;15.65;;;;;;;;;;4934647;28;20051;-73
2021/12/19 10:23:25;;;;;;;21.48;15.40;;;;;;;;;;4947910;29;20559;-73
2021/12/19 10:26:08;;;;;;;26.67;15.82;;;;;;;;;;4943961;28;20071;-73
2021/12/19 10:28:57;;;;;;;26.50;15.93;;;;;;;;;;4938255;28;20039;-73
2021/12/19 10:31:25;;;;;;;18.85;15.43;;;;;;;;;;4940677;28;20055;-73
2021/12/19 10:33:51;;;;;;;25.75;16.15;;;;;;;;;;4939410;29;20032;-73
2021/12/19 10:36:18;;;;;;;22.80;14.75;;;;;;;;;;4933330;28;20055;-73
2021/12/19 10:38:51;;;;;;;19.55;14.80;;;;;;;;;;4942820;28;20031;-72
2021/12/19 10:41:31;;;;;;;24.85;16.63;;;;;;;;;;4945948;28;20419;-73
2021/12/19 10:44:02;;;;;;;20.52;15.10;;;;;;;;;;4935404;28;20062;-74
2021/12/19 10:46:29;;;;;;;19.70;14.75;;;;;;;;;;4941825;29;20034;-73
2021/12/19 10:48:56;;;;;;;19.45;14.40;;;;;;;;;;4947255;29;20115;-73
2021/12/19 10:51:22;;;;;;;19.38;13.65;;;;;;;;;;4943313;29;20039;-73
2021/12/19 10:53:52;;;;;;;20.40;14.80;;;;;;;;;;4944815;28;20046;-73
2021/12/19 10:56:24;;;;;;;17.92;13.80;;;;;;;;;;4940984;29;20046;-72
2021/12/19 10:58:56;;;;;;;22.23;13.93;;;;;;;;;;4935434;29;20031;-72
2021/12/19 11:01:29;;;;;;;21.67;14.73;;;;;;;;;;4930741;29;20036;-72
2021/12/19 11:04:07;;;;;;;13.45;12.23;;;;;;;;;;4938284;28;20035;-72
2021/12/19 11:06:39;;;;;;;17.02;14.10;;;;;;;;;;4942020;28;20140;-73
2021/12/19 11:09:28;;;;;;;14.43;13.02;;;;;;;;;;4941327;29;20035;-73
2021/12/19 11:11:54;;;;;;;16.42;13.45;;;;;;;;;;4946702;28;20035;-72
2021/12/19 11:14:38;;;;;;;19.63;15.50;;;;;;;;;;4937199;28;20053;-73
2021/12/19 11:17:22;;;;;;;19.02;13.98;;;;;;;;;;4940064;29;20039;-73
2021/12/19 11:19:51;;;;;;;15.80;13.60;;;;;;;;;;4939244;28;20031;-73
2021/12/19 11:22:23;;;;;;;16.23;14.40;;;;;;;;;;4946607;28;20135;-72
2021/12/19 11:24:55;;;;;;;15.38;13.77;;;;;;;;;;4945468;29;20039;-73
2021/12/19 11:27:21;;;;;;;17.65;13.50;;;;;;;;;;4935462;29;20086;-72
2021/12/19 11:29:51;;;;;;;14.93;13.43;;;;;;;;;;4936760;29;20633;-74
2021/12/19 11:32:19;;;;;;;17.52;14.27;;;;;;;;;;4939701;28;20559;-74
2021/12/19 11:35:09;;;;;;;15.30;13.80;;;;;;;;;;4929972;29;20458;-73
2021/12/19 11:37:39;;;;;;;17.27;14.30;;;;;;;;;;4943515;29;20034;-72
2021/12/19 11:40:06;;;;;;;15.93;14.35;;;;;;;;;;4932553;28;20275;-72
2021/12/19 11:42:35;;;;;;;13.98;12.70;;;;;;;;;;4941412;29;20057;-72
2021/12/19 11:47:58;;;;;;;14.70;13.20;;;;;;;;;;4933968;29;20051;-72
2021/12/19 11:50:49;;;;;;;19.65;14.70;;;;;;;;;;4935674;28;20074;-72
2021/12/19 11:53:14;;;;;;;17.40;14.10;;;;;;;;;;4941714;29;20039;-73
2021/12/19 11:55:52;;;;;;;18.50;14.32;;;;;;;;;;4942134;29;20411;-73
2021/12/19 11:58:17;;;;;;;19.75;15.20;;;;;;;;;;4945154;28;20039;-73
2021/12/19 12:00:50;;;;;;;17.35;13.70;;;;;;;;;;4941618;29;20037;-72
2021/12/19 12:03:16;;;;;;;18.88;15.02;;;;;;;;;;4935246;29;20043;-73
2021/12/19 12:05:44;;;;;;;17.75;14.32;;;;;;;;;;4940676;28;20059;-72
2021/12/19 12:08:15;;;;;;;16.63;14.90;;;;;;;;;;4941755;28;20138;-73
2021/12/19 12:10:47;;;;;;;17.23;15.48;;;;;;;;;;4939275;29;20040;-73
2021/12/19 12:13:34;;;;;;;20.00;16.85;;;;;;;;;;4935485;29;20679;-73
2021/12/19 12:16:13;;;;;;;17.10;13.98;;;;;;;;;;4953085;28;20043;-72
2021/12/19 12:18:42;;;;;;;19.13;15.32;;;;;;;;;;4939435;28;20492;-73
2021/12/19 12:21:29;;;;;;;19.33;15.32;;;;;;;;;;4938023;29;20130;-73
2021/12/19 12:24:03;;;;;;;22.40;15.60;;;;;;;;;;4940107;28;20035;-72
2021/12/19 12:26:37;;;;;;;22.73;16.92;;;;;;;;;;4943395;29;20043;-73
2021/12/19 12:29:04;;;;;;;17.65;15.18;;;;;;;;;;4940665;29;20051;-70
2021/12/19 12:31:29;;;;;;;21.60;15.95;;;;;;;;;;4936940;28;20054;-70
2021/12/19 12:33:56;;;;;;;17.83;15.02;;;;;;;;;;4941391;29;20031;-70
2021/12/19 12:36:23;;;;;;;16.60;14.50;;;;;;;;;;4941777;28;20046;-70
2021/12/19 12:38:51;;;;;;;21.10;15.60;;;;;;;;;;4937114;28;20046;-73
2021/12/19 12:44:10;;;;;;;23.27;17.80;;;;;;;;;;4940557;29;20158;-70
2021/12/19 12:46:35;;;;;;;23.38;17.10;;;;;;;;;;4942349;28;20043;-74
2021/12/19 12:49:05;;;;;;;19.85;15.82;;;;;;;;;;4937780;28;20043;-72
2021/12/19 12:51:34;;;;;;;20.58;16.48;;;;;;;;;;4933318;28;20157;-71
2021/12/19 12:54:09;;;;;;;23.33;16.63;;;;;;;;;;4938940;29;20122;-71
2021/12/19 12:56:42;;;;;;;22.10;16.30;;;;;;;;;;4929233;29;20047;-73
2021/12/19 12:59:08;;;;;;;24.33;17.33;;;;;;;;;;4934678;28;20043;-72
2021/12/19 13:01:37;;;;;;;27.90;18.75;;;;;;;;;;4939234;28;20466;-72
2021/12/19 13:04:07;;;;;;;22.25;15.98;;;;;;;;;;4940749;29;20510;-71
2021/12/19 13:06:47;;;;;;;23.95;15.90;;;;;;;;;;4938863;29;20097;-72
2021/12/19 13:09:21;;;;;;;23.33;16.92;;;;;;;;;;4941544;28;20123;-71
2021/12/19 13:11:59;;;;;;;23.95;16.08;;;;;;;;;;4938614;29;20043;-72
2021/12/19 13:14:28;;;;;;;23.65;16.15;;;;;;;;;;4942797;29;20039;-72
2021/12/19 13:17:00;;;;;;;23.52;17.35;;;;;;;;;;4931873;29;20515;-72
2021/12/19 13:19:35;;;;;;;19.17;15.27;;;;;;;;;;4938576;29;20526;-72
2021/12/19 13:22:01;;;;;;;26.85;19.45;;;;;;;;;;4937418;28;20082;-72
2021/12/19 13:24:27;;;;;;;24.10;16.73;;;;;;;;;;4936983;28;20035;-74
2021/12/19 13:27:26;;;;;;;22.52;18.02;;;;;;;;;;4940451;28;20042;-72
2021/12/19 13:30:20;;;;;;;24.90;16.80;;;;;;;;;;4935967;28;20032;-72
2021/12/19 13:32:47;;;;;;;23.40;15.55;;;;;;;;;;4942484;28;20043;-72
2021/12/19 13:35:22;;;;;;;25.52;18.65;;;;;;;;;;4942069;28;20046;-74
2021/12/19 13:37:51;;;;;;;27.30;16.38;;;;;;;;;;4941046;28;20040;-72
2021/12/19 13:40:18;;;;;;;23.00;16.67;;;;;;;;;;4936814;28;20114;-73
2021/12/19 13:42:50;;;;;;;22.25;17.30;;;;;;;;;;4933812;28;20077;-73
2021/12/19 13:45:30;;;;;;;27.27;18.90;;;;;;;;;;4926406;29;20593;-73
2021/12/19 13:47:58;;;;;;;24.70;17.33;;;;;;;;;;4934621;29;20047;-73
2021/12/19 13:50:25;;;;;;;19.45;16.05;;;;;;;;;;4948308;28;20047;-73
2021/12/19 13:52:52;;;;;;;25.65;17.92;;;;;;;;;;4941642;29;20114;-73
2021/12/19 13:55:18;;;;;;;22.05;15.70;;;;;;;;;;4936628;29;20043;-73
2021/12/19 13:57:45;;;;;;;24.75;17.65;;;;;;;;;;4941281;29;20093;-73
2021/12/19 14:00:27;;;;;;;23.65;17.55;;;;;;;;;;4941404;29;20666;-73
2021/12/19 14:02:53;;;;;;;19.75;15.88;;;;;;;;;;4935779;29;20130;-73
2021/12/19 14:05:30;;;;;;;16.60;14.75;;;;;;;;;;4939303;28;20115;-72
2021/12/19 14:07:56;;;;;;;22.23;16.90;;;;;;;;;;4939090;29;20032;-73
2021/12/19 14:10:23;;;;;;;21.02;17.23;;;;;;;;;;4942185;29;20566;-73
2021/12/19 14:15:27;;;;;;;18.50;14.75;;;;;;;;;;4935960;28;20043;-73
2021/12/19 14:17:52;;;;;;;16.98;15.27;;;;;;;;;;4941656;28;20102;-73
2021/12/19 14:20:35;;;;;;;17.50;14.60;;;;;;;;;;4938349;29;20506;-73
2021/12/19 14:23:18;;;;;;;18.08;15.10;;;;;;;;;;4932272;28;20039;-73
2021/12/19 14:25:44;;;;;;;20.25;16.00;;;;;;;;;;4938895;28;20047;-73
2021/12/19 14:28:29;;;;;;;16.88;15.02;;;;;;;;;;4940341;28;21008;-73
2021/12/19 14:31:04;;;;;;;17.42;15.68;;;;;;;;;;4939010;28;20043;-73
2021/12/19 14:33:30;;;;;;;16.48;14.52;;;;;;;;;;4936616;29;20389;-73
2021/12/19 14:35:55;;;;;;;18.45;15.40;;;;;;;;;;4935981;28;20198;-73
2021/12/19 14:38:22;;;;;;;17.67;15.15;;;;;;;;;;4938765;29;20050;-73
2021/12/19 14:40:48;;;;;;;18.23;15.32;;;;;;;;;;4942058;28;20102;-73
2021/12/19 14:43:18;;;;;;;14.85;13.38;;;;;;;;;;4943732;29;20127;-74
2021/12/19 14:45:52;;;;;;;17.42;15.73;;;;;;;;;;4943733;29;20162;-73
2021/12/19 14:48:42;;;;;;;16.42;14.57;;;;;;;;;;4939934;28;20482;-73
2021/12/19 14:51:10;;;;;;;14.43;13.02;;;;;;;;;;4943079;28;20475;-73
2021/12/19 14:53:44;;;;;;;14.82;13.32;;;;;;;;;;4947926;29;20091;-73
2021/12/19 14:56:16;;;;;;;15.27;13.60;;;;;;;;;;4946268;28;20401;-73
2021/12/19 14:58:46;;;;;;;15.13;13.63;;;;;;;;;;4945986;29;20039;-72
2021/12/19 15:01:17;;;;;;;14.20;12.85;;;;;;;;;;4947372;29;20042;-73
2021/12/19 15:03:52;;;;;;;15.63;14.02;;;;;;;;;;4964323;28;20066;-72
2021/12/19 15:06:23;;;;;;;13.75;12.55;;;;;;;;;;4957705;23;20306;-71
2021/12/19 15:08:50;;;;;;;15.88;14.18;;;;;;;;;;4935438;29;20493;-69
2021/12/19 15:11:16;;;;;;;16.77;15.07;;;;;;;;;;4929735;29;20039;-70
2021/12/19 15:13:43;;;;;;;16.73;14.95;;;;;;;;;;4935830;29;20035;-70
2021/12/19 15:16:09;;;;;;;19.23;15.52;;;;;;;;;;4921496;29;20614;-70
2021/12/19 15:18:35;;;;;;;17.45;14.63;;;;;;;;;;4928975;29;20036;-69
2021/12/19 15:21:04;;;;;;;18.02;15.90;;;;;;;;;;4925226;29;20047;-71
2021/12/19 15:23:31;;;;;;;19.65;14.85;;;;;;;;;;4928140;29;20031;-70
2021/12/19 15:25:57;;;;;;;17.35;15.13;;;;;;;;;;4923532;29;20454;-70
2021/12/19 15:28:24;;;;;;;17.80;15.88;;;;;;;;;;4927851;29;20522;-69
2021/12/19 15:30:54;;;;;;;26.77;18.92;;;;;;;;;;4933538;29;20051;-70
2021/12/19 15:33:21;;;;;;;25.08;16.67;;;;;;;;;;4927881;29;20051;-67
2021/12/19 15:35:47;;;;;;;19.38;15.02;;;;;;;;;;4929170;29;20094;-70